Fort Worth Meacham International Airport
KFTW : rendu visible

Aérodrome :











RETROUVEZ-NOUS SUR...

 
LOGIN :

S'inscrire | Disclaimer

   EN    FR    IT 

 









Légende :    VFR   VFR Marginal   IFR   IFR Intensif   IFR Très Intensif
Visi : 
Plafond : 
>= 8 km
>= 3000ft
5 à 8 km
1000 à 3000 ft
1500m à 5 km
500 à 1000 ft
800 à 1500m
200 à 500 ft
< 800m
< 200 ft
Symboles :   Orages  Brouillard  Fortes neiges  Fortes précipitations  Vent > 20 kt






- Altitude de l'aérodrome : 710 ft
- Code IATA : FTW


KFTW - Fort Worth Meacham International

DERNIER METAR :
  • 191253Z 29003KT 10SM CLR 08/04 A2996 RMK AO2 SLP142 T00780044

METARs EXPIRÉS :
  • 191153Z 00000KT 10SM CLR 07/04 A2993 RMK AO2 SLP133 T00670039 10128 20067 53005
  • 191053Z 00000KT 10SM CLR 08/05 A2992 RMK AO2 SLP129 T00830050

TAF KFTW
Valide du 19 à 12h jusqu'au 20 à 12h UTC


191120Z 1912/2012 21005KT P6SM SKC
FM191600 15010KT P6SM FEW250
FM201100 17011KT P6SM BKN025



MET'MAP, la Météo Aéronautique d'un coup d'oeil ! - Copyright ORBIFLY Décembre 2007 - Disclaimer

ORBIFLY MET'MAP TEAM :

Programmation & Développement : Alexandra Zaïnal
Conception & Développement : Baudouin d'Aumeries
Co-Programmation & Développement : Marc-Olivier Méhu
Soutien technique & logistique : Manuel Goepfert

Contact : metmap@orbifly.com




SOURCES & CREDITS :

   NOAA       Earth
Advisory